Time;durP1;ratioP1;P1;durP2;ratioP2;P2;SDS_P1;SDS_P2;PMS_P1;PMS_P2;Temp;Humidity;BMP_temperature;BMP_pressure;BME280_temperature;BME280_humidity;BME280_pressure;Samples;Min_cycle;Max_cycle;Signal;HPM_P1;HPM_P2
2021/07/04 00:00:24;;;;;;;7.25;4.55;;;;;;;18.87;78.63;101123.47;5072208;28;20483;-51
2021/07/04 00:02:54;;;;;;;5.80;3.97;;;;;;;18.85;79.13;101116.63;5072207;28;20521;-53
2021/07/04 00:05:24;;;;;;;9.45;4.70;;;;;;;18.83;79.37;101103.16;5071815;28;20044;-52
2021/07/04 00:07:52;;;;;;;7.88;4.57;;;;;;;18.78;79.65;101108.00;5071762;28;20118;-50
2021/07/04 00:10:25;;;;;;;9.00;4.75;;;;;;;18.76;79.77;101110.22;5070399;28;20045;-51
2021/07/04 00:12:56;;;;;;;8.73;5.15;;;;;;;18.76;79.87;101110.22;5072014;28;20047;-52
2021/07/04 00:15:26;;;;;;;7.32;4.90;;;;;;;18.78;79.91;101105.22;5072192;28;20140;-51
2021/07/04 00:17:54;;;;;;;7.55;4.97;;;;;;;18.79;79.42;101113.19;5072143;28;20041;-54
2021/07/04 00:20:22;;;;;;;9.20;4.85;;;;;;;18.79;79.42;101109.63;5072228;28;20110;-52
2021/07/04 00:22:54;;;;;;;6.25;4.40;;;;;;;18.79;79.56;101109.63;5071742;28;20043;-49
2021/07/04 00:25:23;;;;;;;7.60;4.57;;;;;;;18.79;79.19;101107.69;5071919;28;20059;-50
2021/07/04 00:27:52;;;;;;;6.68;4.60;;;;;;;18.79;79.17;101101.34;5072058;28;20044;-56
2021/07/04 00:30:21;;;;;;;6.78;4.32;;;;;;;18.78;79.14;101102.47;5064554;28;20037;-55
2021/07/04 00:32:49;;;;;;;7.55;4.45;;;;;;;18.79;78.87;101104.13;5072385;28;20055;-56
2021/07/04 00:35:18;;;;;;;9.57;4.72;;;;;;;18.81;79.04;101104.59;5037835;28;20494;-54
2021/07/04 00:37:47;;;;;;;9.77;4.40;;;;;;;18.79;79.00;101099.41;5071213;28;20409;-51
2021/07/04 00:40:16;;;;;;;7.68;4.63;;;;;;;18.76;79.00;101099.16;5072262;28;20067;-52
2021/07/04 00:42:44;;;;;;;8.75;5.53;;;;;;;18.71;79.16;101103.72;5037525;28;20384;-53
2021/07/04 00:45:18;;;;;;;8.00;4.90;;;;;;;18.71;79.59;101102.88;5057981;28;20048;-51
2021/07/04 00:47:48;;;;;;;7.78;5.18;;;;;;;18.72;79.53;101104.53;5054171;28;20044;-50
2021/07/04 00:50:21;;;;;;;8.98;4.97;;;;;;;18.71;79.45;101103.72;5053783;28;20052;-54
2021/07/04 00:52:51;;;;;;;8.10;5.30;;;;;;;18.71;79.57;101105.63;5053633;28;20098;-55
2021/07/04 00:55:19;;;;;;;8.27;4.85;;;;;;;18.69;79.88;101103.22;5053594;28;20127;-54
2021/07/04 00:57:52;;;;;;;8.07;5.30;;;;;;;18.64;79.83;101092.31;5054116;28;20143;-55
2021/07/04 01:00:28;;;;;;;8.60;5.53;;;;;;;18.64;80.06;101099.75;5053689;28;20076;-51
2021/07/04 01:02:56;;;;;;;8.38;5.25;;;;;;;18.62;80.14;101091.81;5071971;28;20047;-54
2021/07/04 01:05:27;;;;;;;7.50;5.18;;;;;;;18.62;80.13;101083.53;5053415;28;20135;-50
2021/07/04 01:07:56;;;;;;;8.93;5.28;;;;;;;18.61;80.33;101081.88;5071390;28;20052;-54
2021/07/04 01:10:27;;;;;;;8.45;5.70;;;;;;;18.62;80.23;101072.50;5053918;28;20071;-54
2021/07/04 01:13:06;;;;;;;7.13;4.97;;;;;;;18.64;80.17;101075.75;5054030;28;20055;-50
2021/07/04 01:15:36;;;;;;;9.43;5.63;;;;;;;18.63;79.96;101068.59;5053185;28;20136;-51
2021/07/04 01:18:09;;;;;;;8.18;5.65;;;;;;;18.60;80.18;101063.72;5055476;28;20036;-50
2021/07/04 01:20:42;;;;;;;7.45;5.25;;;;;;;18.58;80.15;101067.91;5057106;28;20040;-51
2021/07/04 01:23:15;;;;;;;8.88;5.03;;;;;;;18.51;80.13;101052.59;5057166;28;20500;-53
2021/07/04 01:25:49;;;;;;;7.40;5.32;;;;;;;18.50;80.47;101058.47;5074999;28;20052;-50
2021/07/04 01:28:19;;;;;;;7.75;5.15;;;;;;;18.49;80.82;101054.88;5074942;28;20510;-52
2021/07/04 01:30:56;;;;;;;7.32;5.35;;;;;;;18.50;80.72;101055.69;5056968;28;20099;-50
2021/07/04 01:33:26;;;;;;;7.65;5.38;;;;;;;18.49;80.59;101052.09;5067966;28;20075;-52
2021/07/04 01:35:54;;;;;;;8.32;5.72;;;;;;;18.50;80.60;101052.94;5074081;28;20102;-49
2021/07/04 01:38:22;;;;;;;9.07;5.75;;;;;;;18.47;80.53;101053.56;5057233;28;20503;-52
2021/07/04 01:40:52;;;;;;;7.93;5.85;;;;;;;18.44;80.66;101049.47;5074725;28;20442;-51
2021/07/04 01:43:20;;;;;;;7.13;4.97;;;;;;;18.42;80.64;101045.41;5036774;28;20492;-51
2021/07/04 01:45:48;;;;;;;11.10;5.63;;;;;;;18.43;80.88;101053.38;5068411;28;20072;-52
2021/07/04 01:48:17;;;;;;;8.45;5.47;;;;;;;18.48;80.72;101049.69;5043134;28;20348;-51
2021/07/04 01:50:49;;;;;;;10.25;5.35;;;;;;;18.51;80.56;101051.81;5073932;28;20048;-53
2021/07/04 01:53:24;;;;;;;9.60;6.22;;;;;;;18.52;80.55;101047.94;5056825;28;20094;-55
2021/07/04 01:55:57;;;;;;;7.90;5.75;;;;;;;18.49;80.24;101045.78;5056843;28;20132;-53
2021/07/04 01:58:25;;;;;;;9.95;5.93;;;;;;;18.47;80.34;101045.28;5074301;28;20868;-51
2021/07/04 02:01:00;;;;;;;9.35;5.65;;;;;;;18.46;80.47;101041.72;5056283;28;20056;-51
2021/07/04 02:03:27;;;;;;;8.48;5.50;;;;;;;18.46;80.50;101051.94;5073886;28;20123;-52
2021/07/04 02:06:00;;;;;;;7.85;5.43;;;;;;;18.48;80.51;101055.19;5055690;28;20048;-52
2021/07/04 02:08:30;;;;;;;7.43;5.45;;;;;;;18.49;80.38;101056.81;5074069;28;20066;-49
2021/07/04 02:11:06;;;;;;;8.18;5.63;;;;;;;18.51;80.33;101060.06;5056294;28;20104;-51
2021/07/04 02:13:34;;;;;;;8.18;5.88;;;;;;;18.50;80.15;101048.22;5056366;28;20490;-50
2021/07/04 02:16:06;;;;;;;8.82;6.32;;;;;;;18.45;80.20;101056.66;5039432;28;20117;-47
2021/07/04 02:18:52;;;;;;;8.73;5.70;;;;;;;18.43;80.43;101052.56;5055478;28;20036;-53
2021/07/04 02:21:54;;;;;;;8.10;5.50;;;;;;;18.42;80.55;101048.16;5056054;28;20040;-50
2021/07/04 02:24:32;;;;;;;7.85;5.82;;;;;;;18.43;80.59;101036.81;5043120;28;20047;-50
2021/07/04 02:27:16;;;;;;;8.50;5.68;;;;;;;18.46;80.54;101046.41;5055691;28;20072;-48
2021/07/04 02:30:05;;;;;;;9.07;6.55;;;;;;;18.43;80.21;101047.88;5062055;28;20040;-53
2021/07/04 02:32:35;;;;;;;10.05;6.72;;;;;;;18.40;80.47;101045.75;5055772;28;20086;-50
2021/07/04 02:35:05;;;;;;;8.93;6.28;;;;;;;18.40;80.45;101047.66;5055466;28;20041;-51
2021/07/04 02:37:34;;;;;;;11.45;6.85;;;;;;;18.40;80.46;101042.16;5073337;28;20347;-51
2021/07/04 02:40:10;;;;;;;9.20;6.53;;;;;;;18.37;80.46;101049.13;5073768;28;20082;-52
2021/07/04 02:42:41;;;;;;;11.15;6.85;;;;;;;18.34;80.18;101048.94;5055801;28;20644;-54
2021/07/04 02:45:11;;;;;;;8.32;6.00;;;;;;;18.31;80.48;101053.97;5055551;28;20049;-53
2021/07/04 02:47:39;;;;;;;9.07;5.90;;;;;;;18.29;80.73;101053.44;5055151;28;20119;-54
2021/07/04 02:50:09;;;;;;;8.70;6.05;;;;;;;18.31;80.44;101056.72;5055420;28;20045;-52
2021/07/04 02:52:37;;;;;;;9.18;6.35;;;;;;;18.31;80.52;101056.72;5073672;28;20052;-51
2021/07/04 02:55:06;;;;;;;9.05;6.47;;;;;;;18.30;80.53;101049.59;5041975;28;20044;-52
2021/07/04 02:57:37;;;;;;;8.88;6.32;;;;;;;18.30;80.25;101054.25;5055441;28;20041;-50
2021/07/04 03:00:16;;;;;;;10.52;7.22;;;;;;;18.28;80.12;101051.03;5055369;28;20407;-50
2021/07/04 03:02:46;;;;;;;8.02;6.25;;;;;;;18.21;80.40;101051.47;5055198;28;20087;-53
2021/07/04 03:05:13;;;;;;;9.45;6.50;;;;;;;18.17;80.28;101050.44;5072906;28;20051;-52
2021/07/04 03:07:43;;;;;;;7.88;6.10;;;;;;;18.19;80.51;101053.72;5073170;28;20048;-52
2021/07/04 03:10:16;;;;;;;9.50;6.47;;;;;;;18.19;80.44;101053.72;5055277;28;20128;-51
2021/07/04 03:12:45;;;;;;;9.05;6.22;;;;;;;18.21;80.46;101051.47;5055385;28;20059;-53
2021/07/04 03:15:15;;;;;;;9.40;6.82;;;;;;;18.22;80.40;101050.31;5054626;28;20052;-54
2021/07/04 03:17:45;;;;;;;10.18;6.38;;;;;;;18.23;80.56;101054.72;5054355;28;20044;-55
2021/07/04 03:20:15;;;;;;;9.82;6.97;;;;;;;18.21;80.58;101056.97;5055354;28;20501;-54
2021/07/04 03:22:48;;;;;;;9.75;7.25;;;;;;;18.19;80.73;101050.97;5055375;28;20449;-53
2021/07/04 03:25:18;;;;;;;9.57;7.25;;;;;;;18.20;80.80;101052.56;5072862;28;20044;-54
2021/07/04 03:27:47;;;;;;;9.23;6.80;;;;;;;18.22;80.86;101055.84;5054696;28;20044;-56
2021/07/04 03:30:18;;;;;;;9.07;6.70;;;;;;;18.22;80.75;101050.31;5072358;28;20068;-53
2021/07/04 03:32:48;;;;;;;11.02;7.22;;;;;;;18.23;80.92;101054.72;5034665;28;20410;-53
2021/07/04 03:35:20;;;;;;;10.38;6.80;;;;;;;18.24;80.61;101045.31;5046833;28;20415;-54
2021/07/04 03:37:51;;;;;;;8.70;6.53;;;;;;;18.25;80.86;101046.94;5072403;28;20111;-51
2021/07/04 03:40:20;;;;;;;9.13;6.63;;;;;;;18.26;80.67;101051.34;5054669;28;20052;-54
2021/07/04 03:42:53;;;;;;;9.57;7.25;;;;;;;18.26;80.66;101051.34;5054147;28;20047;-52
2021/07/04 03:45:25;;;;;;;8.38;6.18;;;;;;;18.27;80.68;101049.38;5072326;28;20048;-53
2021/07/04 03:47:54;;;;;;;9.30;6.63;;;;;;;18.29;80.56;101047.13;5054166;28;20036;-52
2021/07/04 03:50:32;;;;;;;10.85;7.18;;;;;;;18.28;80.42;101051.84;5054183;28;20056;-52
2021/07/04 03:53:01;;;;;;;9.63;6.78;;;;;;;18.26;80.47;101050.53;5054357;28;20074;-51
2021/07/04 03:55:28;;;;;;;8.73;6.45;;;;;;;18.27;80.51;101054.91;5072497;28;20578;-52
2021/07/04 03:57:58;;;;;;;10.52;6.63;;;;;;;18.25;80.49;101046.94;5054370;28;20570;-52
2021/07/04 04:00:34;;;;;;;10.30;7.40;;;;;;;18.24;80.67;101059.09;5054129;28;20556;-54
2021/07/04 04:03:08;;;;;;;10.80;7.43;;;;;;;18.25;80.79;101060.72;5054181;28;20517;-54
2021/07/04 04:05:49;;;;;;;12.73;7.15;;;;;;;18.23;80.83;101049.22;5054291;28;20431;-52
2021/07/04 04:08:18;;;;;;;9.75;7.00;;;;;;;18.23;80.81;101049.22;5054417;28;20051;-51
2021/07/04 04:10:45;;;;;;;11.20;7.03;;;;;;;18.23;80.77;101049.22;5072383;28;20110;-52
2021/07/04 04:13:19;;;;;;;9.57;6.80;;;;;;;18.24;80.79;101050.81;5072326;28;20075;-53
2021/07/04 04:15:52;;;;;;;9.38;6.20;;;;;;;18.26;80.82;101048.56;5053656;28;20048;-53
2021/07/04 04:18:22;;;;;;;10.02;6.88;;;;;;;18.26;80.94;101045.00;5072136;28;20495;-53
2021/07/04 04:20:50;;;;;;;10.30;7.15;;;;;;;18.24;80.89;101039.78;5054323;28;20036;-52
2021/07/04 04:23:17;;;;;;;9.57;7.35;;;;;;;18.21;80.69;101034.91;5072304;28;20111;-51
2021/07/04 04:25:45;;;;;;;11.13;7.50;;;;;;;18.18;80.99;101035.53;5071645;28;20051;-55
2021/07/04 04:28:13;;;;;;;10.25;7.55;;;;;;;18.14;81.32;101037.28;5054245;28;20044;-55
2021/07/04 04:30:41;;;;;;;12.07;7.78;;;;;;;18.14;81.26;101037.28;5053475;28;20036;-51
2021/07/04 04:33:13;;;;;;;11.10;7.55;;;;;;;18.13;81.20;101032.09;5053992;28;20384;-52
2021/07/04 04:35:42;;;;;;;11.18;8.02;;;;;;;18.13;81.37;101035.66;5054090;28;20094;-54
2021/07/04 04:38:10;;;;;;;10.93;7.07;;;;;;;18.12;81.24;101025.75;5072019;28;20033;-49
2021/07/04 04:40:37;;;;;;;11.38;8.40;;;;;;;18.12;81.34;101028.53;5071804;28;20044;-51
2021/07/04 04:43:05;;;;;;;12.02;9.23;;;;;;;18.14;81.40;101033.72;5071573;28;20049;-51
2021/07/04 04:45:33;;;;;;;12.73;9.00;;;;;;;18.15;81.20;101033.41;5071298;28;20041;-53
2021/07/04 04:48:00;;;;;;;17.80;12.20;;;;;;;18.19;81.51;101036.34;5071730;28;20044;-52
2021/07/04 04:50:28;;;;;;;19.13;12.50;;;;;;;18.22;81.51;101041.25;5053793;28;20143;-56
2021/07/04 04:52:56;;;;;;;25.40;14.10;;;;;;;18.25;81.42;101046.94;5073365;28;20048;-51
2021/07/04 04:55:23;;;;;;;21.38;13.73;;;;;;;18.27;81.31;101041.09;5075739;28;20059;-52
2021/07/04 04:57:51;;;;;;;21.00;12.90;;;;;;;18.29;81.20;101047.13;5075021;28;20045;-53
2021/07/04 05:00:18;;;;;;;19.40;12.60;;;;;;;18.30;81.18;101043.22;5075329;28;20045;-51
2021/07/04 05:02:47;;;;;;;20.60;13.43;;;;;;;18.31;81.33;101042.91;5075417;28;20128;-52
2021/07/04 05:05:15;;;;;;;19.90;13.88;;;;;;;18.33;81.32;101045.38;5057437;28;20050;-53
2021/07/04 05:07:43;;;;;;;22.38;13.77;;;;;;;18.33;81.24;101037.09;5075189;28;20076;-54
2021/07/04 05:10:11;;;;;;;20.00;13.23;;;;;;;18.34;81.33;101035.16;5074938;28;20032;-51
2021/07/04 05:12:39;;;;;;;22.23;14.35;;;;;;;18.34;81.38;101032.38;5074845;28;20487;-49
2021/07/04 05:15:08;;;;;;;21.73;14.20;;;;;;;18.36;81.57;101038.41;5074674;28;20433;-51
2021/07/04 05:17:35;;;;;;;21.65;15.32;;;;;;;18.35;81.50;101034.84;5074967;28;20499;-52
2021/07/04 05:20:05;;;;;;;23.83;16.27;;;;;;;18.35;81.49;101032.09;5075210;28;20037;-54
2021/07/04 05:22:33;;;;;;;23.55;15.15;;;;;;;18.36;81.63;101027.38;5074754;28;20041;-51
2021/07/04 05:25:02;;;;;;;20.70;13.65;;;;;;;18.37;81.60;101034.50;5075106;28;20052;-50
2021/07/04 05:27:30;;;;;;;26.00;14.35;;;;;;;18.39;81.50;101019.28;5074230;28;20119;-49
2021/07/04 05:29:57;;;;;;;25.48;16.50;;;;;;;18.41;81.40;101018.97;5074739;28;20410;-53
2021/07/04 05:32:25;;;;;;;35.00;20.75;;;;;;;18.39;81.30;101015.69;5074618;28;20499;-51
2021/07/04 05:34:53;;;;;;;32.13;21.05;;;;;;;18.38;81.42;101022.38;5056733;28;20042;-51
2021/07/04 05:37:22;;;;;;;25.55;17.80;;;;;;;18.36;81.39;101030.13;5074794;28;20501;-49
2021/07/04 05:39:50;;;;;;;26.77;18.20;;;;;;;18.37;81.59;101027.03;5074960;28;20062;-51
2021/07/04 05:42:17;;;;;;;25.40;16.77;;;;;;;18.43;81.30;101024.97;5074431;28;20056;-54
2021/07/04 05:44:45;;;;;;;31.23;20.67;;;;;;;18.45;81.29;101029.06;5074159;28;20044;-54
2021/07/04 05:47:13;;;;;;;29.83;21.30;;;;;;;18.47;81.16;101018.53;5074558;28;20052;-51
2021/07/04 05:49:41;;;;;;;33.47;23.27;;;;;;;18.46;81.03;101002.28;5074341;28;20052;-52
2021/07/04 05:52:08;;;;;;;33.35;24.83;;;;;;;18.47;81.17;100998.38;5074198;28;20037;-52
2021/07/04 05:54:37;;;;;;;33.65;24.13;;;;;;;18.46;81.63;100999.50;5056671;28;20044;-50
2021/07/04 05:57:08;;;;;;;33.65;25.42;;;;;;;18.45;81.26;101003.41;5073901;28;20049;-53
2021/07/04 05:59:36;;;;;;;34.85;24.10;;;;;;;18.44;81.43;101001.78;5074344;28;20052;-52
2021/07/04 06:02:03;;;;;;;31.33;23.48;;;;;;;18.46;81.51;101008.59;5074320;28;20036;-49
2021/07/04 06:04:31;;;;;;;33.08;25.88;;;;;;;18.49;81.43;101002.44;5055682;28;20036;-51
2021/07/04 06:06:59;;;;;;;35.20;25.95;;;;;;;18.49;81.42;101001.63;5073930;28;20656;-51
2021/07/04 06:09:26;;;;;;;36.63;27.60;;;;;;;18.50;81.64;100995.81;5074004;28;20053;-51
2021/07/04 06:11:54;;;;;;;38.90;28.30;;;;;;;18.51;82.00;101002.94;5073400;28;20120;-53
2021/07/04 06:14:21;;;;;;;38.78;27.40;;;;;;;18.53;81.79;101000.69;5074087;28;20063;-55
2021/07/04 06:16:49;;;;;;;43.30;31.88;;;;;;;18.55;81.49;101005.88;5073946;28;20044;-51
2021/07/04 06:19:16;;;;;;;40.90;28.63;;;;;;;18.54;81.51;101001.50;5074020;28;20052;-56
2021/07/04 06:21:44;;;;;;;39.45;29.33;;;;;;;18.55;81.49;101008.66;5074063;28;20055;-51
2021/07/04 06:24:12;;;;;;;40.22;29.73;;;;;;;18.60;81.66;101003.00;5073726;28;20129;-50
2021/07/04 06:26:39;;;;;;;49.25;31.98;;;;;;;18.61;81.45;101004.59;5073099;28;20052;-53
2021/07/04 06:29:07;;;;;;;32.05;22.52;;;;;;;18.65;81.15;101005.59;5073430;28;20453;-53
2021/07/04 06:31:34;;;;;;;29.75;21.17;;;;;;;18.68;81.05;101004.97;5073651;28;20491;-52
2021/07/04 06:34:02;;;;;;;39.75;29.92;;;;;;;18.69;81.02;101003.84;5073313;28;20556;-52
2021/07/04 06:36:30;;;;;;;40.47;28.25;;;;;;;18.69;81.24;101001.09;5073766;28;20117;-53
2021/07/04 06:38:58;;;;;;;42.38;31.00;;;;;;;18.69;81.30;100998.31;5073453;28;20045;-54
2021/07/04 06:41:26;;;;;;;48.38;33.75;;;;;;;18.69;80.71;100998.31;5073511;28;20040;-56
2021/07/04 06:43:54;;;;;;;41.13;31.98;;;;;;;18.68;80.95;100993.91;5073441;28;20054;-54
2021/07/04 06:46:21;;;;;;;45.53;33.85;;;;;;;18.67;80.83;100995.06;5073315;28;20475;-56
2021/07/04 06:48:49;;;;;;;46.60;34.40;;;;;;;18.65;80.70;100999.28;5073452;28;20094;-55
2021/07/04 06:51:16;;;;;;;49.13;35.67;;;;;;;18.59;80.84;100993.09;5072949;28;20052;-54
2021/07/04 06:53:44;;;;;;;52.28;35.38;;;;;;;18.59;81.27;100995.84;5073121;28;20040;-54
2021/07/04 06:56:12;;;;;;;54.10;37.00;;;;;;;18.59;81.54;100989.50;5073145;28;20060;-54
2021/07/04 06:58:43;;;;;;;54.22;39.22;;;;;;;18.59;81.40;100995.84;5073377;28;20044;-54
2021/07/04 07:01:13;;;;;;;56.47;37.30;;;;;;;18.58;81.30;100982.38;5072752;28;20509;-52
2021/07/04 07:03:40;;;;;;;51.72;37.28;;;;;;;18.59;80.85;100989.50;5073218;28;20098;-51
2021/07/04 07:06:08;;;;;;;52.72;36.92;;;;;;;18.61;80.86;100990.81;5072987;28;20060;-49
2021/07/04 07:08:36;;;;;;;53.85;39.17;;;;;;;18.62;80.82;100995.22;5072406;28;20039;-52
2021/07/04 07:11:03;;;;;;;58.58;40.97;;;;;;;18.62;81.06;100989.69;5072785;28;20037;-48
2021/07/04 07:13:31;;;;;;;62.60;41.10;;;;;;;18.59;81.14;100983.97;5072860;28;20036;-49
2021/07/04 07:15:58;;;;;;;59.13;41.30;;;;;;;18.57;81.23;100983.47;5072273;28;20098;-50
2021/07/04 07:18:26;;;;;;;54.22;38.63;;;;;;;18.56;81.32;100985.44;5073020;28;20036;-50
2021/07/04 07:20:53;;;;;;;59.83;38.38;;;;;;;18.58;81.29;100985.94;5072800;28;20499;-54
2021/07/04 07:23:23;;;;;;;53.53;38.90;;;;;;;18.61;80.97;100985.28;5051829;28;20052;-53
2021/07/04 07:25:51;;;;;;;56.08;39.20;;;;;;;18.62;80.69;100984.19;5069046;28;20491;-50
2021/07/04 07:28:19;;;;;;;56.25;38.60;;;;;;;18.64;80.56;100989.34;5072681;28;20132;-49
2021/07/04 07:30:56;;;;;;;54.83;37.42;;;;;;;18.65;80.38;100989.03;5051996;28;20049;-49
2021/07/04 07:33:28;;;;;;;53.25;36.42;;;;;;;18.69;80.56;100984.53;5051715;28;20492;-50
2021/07/04 07:35:55;;;;;;;55.78;38.95;;;;;;;18.73;80.79;100985.50;5069427;28;20550;-51
2021/07/04 07:38:23;;;;;;;56.40;37.78;;;;;;;18.74;80.68;100989.91;5062497;28;20055;-50
2021/07/04 07:40:50;;;;;;;54.20;39.22;;;;;;;18.77;80.56;100977.44;5072386;28;20406;-50
2021/07/04 07:43:18;;;;;;;55.95;37.80;;;;;;;18.81;80.07;100980.34;5063941;28;20555;-50
2021/07/04 07:45:50;;;;;;;59.05;41.33;;;;;;;18.83;79.16;100983.63;5071695;28;20036;-49
2021/07/04 07:48:17;;;;;;;63.95;42.33;;;;;;;18.85;78.29;100982.16;5072354;28;20032;-51
2021/07/04 07:51:04;;;;;;;47.17;32.85;;;;;;;18.89;77.79;100988.69;5052350;28;20128;-52
2021/07/04 07:53:32;;;;;;;55.90;37.03;;;;;;;18.97;77.38;100989.03;5071492;28;20040;-52
2021/07/04 07:55:59;;;;;;;51.10;30.08;;;;;;;19.02;77.54;100992.44;5071925;28;20045;-52
2021/07/04 07:58:44;;;;;;;48.35;33.85;;;;;;;19.06;77.09;100976.84;5050120;28;20053;-54
2021/07/04 08:01:15;;;;;;;51.58;37.08;;;;;;;19.10;76.64;100993.63;5071113;28;20052;-53
2021/07/04 08:03:43;;;;;;;58.00;41.25;;;;;;;19.12;76.76;100983.88;5071725;28;20064;-51
2021/07/04 08:06:13;;;;;;;49.25;35.80;;;;;;;19.13;77.76;100981.91;5052967;28;20044;-49
2021/07/04 08:08:41;;;;;;;57.38;40.38;;;;;;;19.13;78.35;100982.72;5064905;28;20056;-55
2021/07/04 08:11:09;;;;;;;55.90;37.75;;;;;;;19.18;77.71;100986.47;5070771;28;20139;-50
2021/07/04 08:13:37;;;;;;;42.63;24.15;;;;;;;19.19;77.32;100977.84;5050115;28;20515;-53
2021/07/04 08:16:05;;;;;;;51.97;32.50;;;;;;;19.26;76.33;100977.38;5069858;28;20491;-53
2021/07/04 08:18:33;;;;;;;56.03;32.65;;;;;;;19.30;76.43;100981.94;5071460;28;20056;-54
2021/07/04 08:21:01;;;;;;;53.63;39.60;;;;;;;19.31;76.05;100966.16;5049566;28;20045;-55
2021/07/04 08:23:28;;;;;;;41.40;29.02;;;;;;;19.33;76.06;100963.91;5069572;28;20128;-54
2021/07/04 08:25:56;;;;;;;49.35;32.78;;;;;;;19.40;75.56;100967.00;5070443;28;20040;-52
2021/07/04 08:28:23;;;;;;;43.50;25.65;;;;;;;19.48;75.00;100962.59;5074233;28;20052;-51
2021/07/04 08:30:51;;;;;;;43.38;30.88;;;;;;;19.58;74.35;100959.53;5076096;28;20052;-54
2021/07/04 08:33:18;;;;;;;46.85;34.22;;;;;;;19.58;73.24;100960.34;5067548;28;20495;-51
2021/07/04 08:35:46;;;;;;;42.42;31.88;;;;;;;19.59;73.41;100952.84;5075757;28;20051;-51
2021/07/04 08:38:14;;;;;;;41.17;31.13;;;;;;;19.57;71.75;100952.38;5070507;28;20040;-51
2021/07/04 08:40:41;;;;;;;41.65;28.92;;;;;;;19.60;72.36;100951.69;5075953;28;20047;-50
2021/07/04 08:43:09;;;;;;;39.35;28.80;;;;;;;19.62;72.58;100945.88;5056475;28;20499;-53
2021/07/04 08:45:38;;;;;;;38.15;27.83;;;;;;;19.63;71.54;100944.75;5075469;28;20040;-51
2021/07/04 08:48:06;;;;;;;32.67;22.75;;;;;;;19.65;71.55;100942.44;5075418;28;20368;-51
2021/07/04 08:50:34;;;;;;;32.38;22.13;;;;;;;19.68;71.77;100942.63;5074354;28;20127;-50
2021/07/04 08:53:02;;;;;;;33.97;23.40;;;;;;;19.69;70.04;100937.91;5074388;28;20048;-52
2021/07/04 08:55:30;;;;;;;31.92;22.67;;;;;;;19.71;70.59;100941.97;5075141;28;20529;-54
2021/07/04 08:57:57;;;;;;;32.25;20.77;;;;;;;19.73;70.17;100942.47;5075386;28;20061;-55
2021/07/04 09:00:26;;;;;;;32.13;21.42;;;;;;;19.78;71.05;100952.56;5075409;28;20102;-53
2021/07/04 09:02:54;;;;;;;37.67;23.77;;;;;;;19.85;71.69;100950.09;5054316;28;20051;-50
2021/07/04 09:05:22;;;;;;;36.63;27.10;;;;;;;19.89;71.41;100939.19;5053346;28;20045;-49
2021/07/04 09:07:50;;;;;;;35.45;25.40;;;;;;;19.92;71.74;100942.13;5063201;28;20033;-55
2021/07/04 09:10:19;;;;;;;38.15;26.17;;;;;;;19.98;71.10;100946.31;5048828;28;20057;-56
2021/07/04 09:12:54;;;;;;;33.42;24.60;;;;;;;19.99;69.73;100942.44;5075049;28;20518;-56
2021/07/04 09:15:28;;;;;;;34.75;19.25;;;;;;;20.06;71.93;100941.09;5074827;28;20047;-56
2021/07/04 09:17:58;;;;;;;38.33;27.08;;;;;;;20.15;69.82;100939.13;5072229;28;20036;-54
2021/07/04 09:20:34;;;;;;;39.55;28.92;;;;;;;20.12;68.88;100920.44;5074212;28;20141;-55
2021/07/04 09:23:03;;;;;;;;;;;;;;;20.13;68.75;100910.97;5075305;28;20040;-50
2021/07/04 09:25:35;;;;;;;32.17;23.73;;;;;;;20.15;68.48;100905.94;5053568;28;19932;-50
2021/07/04 09:28:12;;;;;;;29.00;20.38;;;;;;;20.17;69.66;100909.19;5073071;28;20044;-55
2021/07/04 09:30:42;;;;;;;31.85;21.75;;;;;;;20.17;66.17;100909.97;5074890;28;20047;-51
2021/07/04 09:33:13;;;;;;;27.20;18.55;;;;;;;20.16;64.97;100908.38;5074156;28;20499;-50
2021/07/04 09:35:54;;;;;;;23.90;16.45;;;;;;;20.17;65.53;100912.75;5074511;28;20048;-51
2021/07/04 09:38:24;;;;;;;26.73;18.70;;;;;;;20.19;65.69;100906.91;5063212;28;20134;-52
2021/07/04 09:40:52;;;;;;;24.85;17.80;;;;;;;20.23;67.48;100916.16;5074520;28;20045;-54
2021/07/04 09:43:20;;;;;;;29.23;21.40;;;;;;;20.21;66.68;100899.09;5066769;28;20128;-51
2021/07/04 09:46:06;;;;;;;29.83;18.40;;;;;;;20.32;70.69;100903.09;5074464;28;20451;-52
2021/07/04 09:48:33;;;;;;;27.23;19.50;;;;;;;20.39;69.57;100900.63;5056741;28;20041;-54
2021/07/04 09:51:15;;;;;;;30.63;22.05;;;;;;;20.45;69.37;100897.69;5074344;28;20060;-51
2021/07/04 09:53:46;;;;;;;28.10;20.77;;;;;;;20.50;67.67;100894.72;5074193;28;20043;-51
2021/07/04 09:56:15;;;;;;;32.40;24.20;;;;;;;20.53;67.20;100889.31;5074566;28;20135;-51
2021/07/04 09:58:44;;;;;;;31.77;23.27;;;;;;;20.55;66.26;100891.75;5074420;28;20094;-51
2021/07/04 10:01:30;;;;;;;30.75;22.90;;;;;;;20.55;68.58;100897.31;5074454;28;20056;-52
2021/07/04 10:03:58;;;;;;;29.50;20.85;;;;;;;20.54;68.83;100890.13;5073846;28;20098;-53
2021/07/04 10:06:26;;;;;;;25.90;18.80;;;;;;;20.54;69.49;100901.19;5074165;28;20048;-52
2021/07/04 10:08:54;;;;;;;33.95;24.15;;;;;;;20.54;68.51;100895.66;5066022;28;20048;-52
2021/07/04 10:11:21;;;;;;;28.77;20.38;;;;;;;20.53;67.96;100888.50;5074205;28;20037;-51
2021/07/04 10:13:49;;;;;;;32.30;24.27;;;;;;;20.53;68.62;100885.75;5072849;28;20394;-51
2021/07/04 10:16:18;;;;;;;28.58;21.10;;;;;;;20.59;69.22;100881.69;5074004;28;20105;-54
2021/07/04 10:18:48;;;;;;;25.13;16.83;;;;;;;20.71;70.08;100883.69;5073231;28;20111;-52
2021/07/04 10:21:19;;;;;;;37.90;26.33;;;;;;;20.78;68.33;100879.28;5074086;28;20048;-52
2021/07/04 10:23:48;;;;;;;31.40;22.33;;;;;;;20.84;67.83;100869.63;5051875;28;20049;-52
2021/07/04 10:26:16;;;;;;;35.65;25.83;;;;;;;20.85;66.96;100860.19;5055471;28;20045;-50
2021/07/04 10:28:45;;;;;;;30.90;22.38;;;;;;;20.87;67.63;100861.78;5051877;28;20056;-50
2021/07/04 10:31:18;;;;;;;28.65;20.08;;;;;;;20.84;68.74;100860.50;5072758;28;20052;-52
2021/07/04 10:34:25;;;;;;;35.10;25.02;;;;;;;20.82;67.58;100858.06;4971865;28;20046;-55
2021/07/04 10:36:54;;;;;;;26.30;20.20;;;;;;;20.79;67.47;100855.97;4972498;28;20118;-53
2021/07/04 10:39:21;;;;;;;38.47;26.23;;;;;;;20.76;66.88;100847.53;4969396;28;20054;-54
2021/07/04 10:42:00;;;;;;;36.22;26.95;;;;;;;20.75;67.03;100840.38;4972609;28;20058;-53
2021/07/04 10:45:00;;;;;;;35.85;24.65;;;;;;;20.76;67.86;100842.81;4972124;28;20054;-54
2021/07/04 10:47:35;;;;;;;29.08;20.45;;;;;;;20.78;68.41;100840.50;4876758;29;20052;-52
2021/07/04 10:50:11;;;;;;;37.85;26.92;;;;;;;20.83;69.04;100842.28;4867714;29;20053;-51
2021/07/04 10:52:44;;;;;;;34.58;24.23;;;;;;;20.86;69.31;100830.50;4953052;28;20038;-53
2021/07/04 10:55:15;;;;;;;29.67;22.75;;;;;;;20.89;68.74;100827.06;4972091;28;20083;-53
2021/07/04 10:57:53;;;;;;;34.17;24.75;;;;;;;20.89;68.23;100824.28;4972205;28;20057;-53
2021/07/04 11:00:23;;;;;;;39.33;26.80;;;;;;;20.91;67.38;100818.44;4972005;28;20083;-53
2021/07/04 11:02:57;;;;;;;37.53;27.27;;;;;;;20.93;67.06;100816.13;4971236;28;20055;-51
2021/07/04 11:05:34;;;;;;;32.00;22.83;;;;;;;20.94;67.29;100804.69;4971823;28;20069;-54
2021/07/04 11:08:02;;;;;;;35.42;25.95;;;;;;;20.99;66.86;100795.38;4971168;28;20070;-52
2021/07/04 11:10:31;;;;;;;28.33;21.13;;;;;;;21.02;67.96;100795.53;4971829;28;20410;-51
2021/07/04 11:13:08;;;;;;;39.65;27.75;;;;;;;21.08;66.43;100793.34;4971719;28;20497;-54
2021/07/04 11:15:37;;;;;;;39.30;28.50;;;;;;;21.12;65.29;100788.75;4971265;28;20086;-49
2021/07/04 11:18:07;;;;;;;36.47;26.80;;;;;;;21.14;65.31;100786.44;4955392;28;20065;-52
2021/07/04 11:20:42;;;;;;;38.50;27.75;;;;;;;21.14;64.89;100786.44;4971314;28;20098;-49
2021/07/04 11:23:16;;;;;;;40.63;30.15;;;;;;;21.12;64.70;100788.75;5024101;28;20498;-49
2021/07/04 11:25:47;;;;;;;35.20;25.27;;;;;;;21.09;64.76;100788.59;5069413;28;20048;-60
2021/07/04 11:28:21;;;;;;;36.13;24.55;;;;;;;21.08;65.28;100787.78;5072535;28;20494;-58